ADDS METAR Data INFO
IDs: Format: Raw Decoded Include TAF

Data at: 2008 UTC 19 Oct 2017

KOSU 191953Z 24011KT 10SM CLR 23/10 A3017 RMK AO2 SLP214 T02280100
KOSU 191853Z 25012KT 10SM CLR 23/11 A3017 RMK AO2 SLP215 T02280111
KOSU 191753Z 21012KT 10SM CLR 22/11 A3019 RMK AO2 SLP220 T02170111 10217 20072 58012
KOSU 191653Z 23012G17KT 10SM CLR 21/11 A3021 RMK AO2 SLP228 T02060111
KOSU 191553Z 21013KT 10SM CLR 19/11 A3021 RMK AO2 SLP228 T01890106
KOSU 191453Z 22011KT 10SM CLR 16/09 A3022 RMK AO2 SLP233 T01610094 50007
KOSU 191353Z 22006KT 10SM CLR 13/08 A3023 RMK AO2 SLP235 T01280083
KOSU 191253Z 19006KT 10SM CLR 09/07 A3022 RMK AO2 SLP233 T00940072
KOSU 191153Z 15003KT 10SM CLR 08/07 A3020 RMK AO2 SLP227 T00780067 10111 20078 53002
KOSU 191053Z 18006KT 10SM CLR 08/07 A3019 RMK AO2 SLP223 T00830067
KOSU 190953Z AUTO 18005KT 10SM CLR 08/07 A3020 RMK AO2 SLP225 T00830067
KOSU 190853Z AUTO 18006KT 10SM CLR 09/07 A3019 RMK AO2 SLP224 T00890067 55001
KOSU 190753Z AUTO 17004KT 10SM CLR 09/07 A3019 RMK AO2 SLP223 T00890067
KOSU 190653Z AUTO 15003KT 10SM CLR 08/06 A3019 RMK AO2 SLP224 T00830061
KOSU 190553Z AUTO 18004KT 10SM CLR 11/07 A3020 RMK AO2 SLP224 T01060067 10161 20094 53001
KOSU 190453Z AUTO 16004KT 10SM CLR 12/07 A3019 RMK AO2 SLP222 T01170067 402000044
KOSU 190353Z AUTO 20004KT 10SM CLR 12/06 A3019 RMK AO2 SLP224 T01220061
KOSU 190253Z 19006KT 10SM CLR 13/07 A3019 RMK AO2 SLP224 T01280067 58003
KOSU 190153Z 18005KT 10SM CLR 13/06 A3020 RMK AO2 SLP225 T01330061
KOSU 190053Z 18006KT 10SM CLR 15/06 A3020 RMK AO2 SLP227 T01500056
KOSU 182353Z 17005KT 10SM CLR 16/05 A3020 RMK AO2 SLP228 T01610050 10200 20161 56003
KOSU 182253Z 16005KT 10SM CLR 18/06 A3020 RMK AO2 SLP227 T01780056
KOSU 182153Z 18009KT 10SM CLR 19/06 A3020 RMK AO2 SLP226 T01940056
KOSU 182053Z 16008KT 10SM CLR 20/06 A3021 RMK AO2 SLP229 T02000061 56021
KOSU 181953Z 19008G15KT 10SM CLR 20/06 A3022 RMK AO2 SLP234 T02000061
KOSU 181853Z 18010KT 10SM CLR 19/07 A3024 RMK AO2 SLP241 T01940067
KOSU 181753Z 21008G15KT 10SM CLR 19/07 A3027 RMK AO2 SLP251 T01890067 10189 20061 58020
KOSU 181653Z 21005KT 10SM CLR 18/07 A3031 RMK AO2 SLP264 T01780072
KOSU 181553Z 19008KT 10SM CLR 17/07 A3032 RMK AO2 SLP268 T01670072
KOSU 181453Z 21004KT 10SM CLR 14/08 A3033 RMK AO2 SLP273 T01440078 50006
KOSU 181353Z 19005KT 10SM CLR 12/07 A3033 RMK AO2 SLP273 T01170072
KOSU 181253Z 18006KT 10SM CLR 08/07 A3033 RMK AO2 SLP273 T00830067
KOSU 181153Z 18003KT 10SM CLR 06/05 A3032 RMK AO2 SLP269 T00610050 10078 20044 53007
KOSU 181053Z 00000KT 10SM CLR 05/05 A3031 RMK AO2 SLP265 T00500050
KOSU 180953Z AUTO 00000KT 10SM CLR 06/06 A3030 RMK AO2 SLP261 T00560056
KOSU 180853Z AUTO 00000KT 10SM CLR 06/06 A3029 RMK AO2 SLP259 T00610056 53001